createdAt,value
2022-12-22T00:01:23.266Z,8.656
2022-12-22T00:03:24.220Z,8.676
2022-12-22T00:05:23.517Z,8.687
2022-12-22T00:07:23.702Z,8.687
2022-12-22T00:09:24.352Z,8.687
2022-12-22T00:11:23.824Z,8.687
2022-12-22T00:13:24.263Z,8.687
2022-12-22T00:15:23.986Z,8.687
2022-12-22T00:17:23.648Z,8.687
2022-12-22T00:19:22.509Z,8.687
2022-12-22T00:20:27.641Z,8.687
2022-12-22T00:21:22.913Z,8.687
2022-12-22T00:23:22.962Z,8.687
2022-12-22T00:25:24.514Z,8.687
2022-12-22T00:26:23.462Z,8.687
2022-12-22T00:27:22.895Z,8.687
2022-12-22T00:29:22.908Z,8.687
2022-12-22T00:31:23.605Z,8.687
2022-12-22T00:33:23.828Z,8.687
2022-12-22T00:35:23.581Z,8.687
2022-12-22T00:37:23.348Z,8.687
2022-12-22T00:39:24.372Z,8.687
2022-12-22T00:41:27.894Z,8.687
2022-12-22T00:43:22.807Z,8.687
2022-12-22T00:45:23.112Z,8.687
2022-12-22T00:47:22.602Z,8.687
2022-12-22T00:49:22.860Z,8.687
2022-12-22T00:51:22.574Z,8.687
2022-12-22T00:53:23.044Z,8.687
2022-12-22T00:55:24.343Z,8.687
2022-12-22T00:57:23.535Z,8.687
2022-12-22T00:59:23.411Z,8.687
2022-12-22T01:01:39.398Z,8.687
2022-12-22T01:03:23.578Z,8.687
2022-12-22T01:05:23.075Z,8.718
2022-12-22T01:07:23.622Z,8.687
2022-12-22T01:09:22.959Z,8.697
2022-12-22T01:11:22.782Z,8.729
2022-12-22T01:13:24.294Z,8.729
2022-12-22T01:15:24.270Z,8.697
2022-12-22T01:17:24.020Z,8.729
2022-12-22T01:19:24.037Z,8.75
2022-12-22T01:21:24.865Z,8.729
2022-12-22T01:23:23.706Z,8.729
2022-12-22T01:25:24.887Z,8.739
2022-12-22T01:27:23.787Z,8.75
2022-12-22T01:29:25.396Z,8.75
2022-12-22T01:31:23.934Z,8.75
2022-12-22T01:33:24.868Z,8.75
2022-12-22T01:35:24.598Z,8.75
2022-12-22T01:37:24.306Z,8.75
2022-12-22T01:39:24.276Z,8.75
2022-12-22T01:41:23.844Z,8.75
2022-12-22T01:43:24.384Z,8.75
2022-12-22T01:45:24.885Z,8.75
2022-12-22T01:47:24.697Z,8.75
2022-12-22T01:49:24.251Z,8.75
2022-12-22T01:51:24.057Z,8.75
2022-12-22T01:53:29.130Z,8.75
2022-12-22T01:55:23.918Z,8.75
2022-12-22T01:57:25.179Z,8.75
2022-12-22T01:59:24.770Z,8.75
2022-12-22T02:00:26.013Z,8.75
2022-12-22T02:01:23.877Z,8.75
2022-12-22T02:03:24.480Z,8.75
2022-12-22T02:05:25.199Z,8.75
2022-12-22T02:07:24.669Z,8.75
2022-12-22T02:09:24.333Z,8.75
2022-12-22T02:11:24.293Z,8.75
2022-12-22T02:13:23.574Z,8.75
2022-12-22T02:15:25.403Z,8.75
2022-12-22T02:17:24.640Z,8.760
2022-12-22T02:19:24.288Z,8.75
2022-12-22T02:21:23.636Z,8.760
2022-12-22T02:23:24.742Z,8.762
2022-12-22T02:25:23.994Z,8.770
2022-12-22T02:27:23.984Z,8.770
2022-12-22T02:29:24.082Z,8.75
2022-12-22T02:31:23.982Z,8.774
2022-12-22T02:33:25.153Z,8.774
2022-12-22T02:35:24.017Z,8.75
2022-12-22T02:37:25.017Z,8.799
2022-12-22T02:39:24.742Z,8.812
2022-12-22T02:41:24.599Z,8.812
2022-12-22T02:42:24.968Z,8.812
2022-12-22T02:43:24.658Z,8.812
2022-12-22T02:45:24.792Z,8.812
2022-12-22T02:47:24.230Z,8.812
2022-12-22T02:49:24.878Z,8.812
2022-12-22T02:51:24.691Z,8.812
2022-12-22T02:53:24.270Z,8.812
2022-12-22T02:55:24.731Z,8.812
2022-12-22T02:57:23.944Z,8.812
2022-12-22T02:59:25.373Z,8.812
2022-12-22T03:01:25.840Z,8.812
2022-12-22T03:03:25.403Z,8.812
2022-12-22T03:05:24.179Z,8.812
2022-12-22T03:07:25.098Z,8.812
2022-12-22T03:09:24.525Z,8.812
2022-12-22T03:11:24.624Z,8.812
2022-12-22T03:13:24.134Z,8.812
2022-12-22T03:15:25.366Z,8.812
2022-12-22T03:17:24.671Z,8.812
2022-12-22T03:19:24.587Z,8.812
2022-12-22T03:21:25.155Z,8.812
2022-12-22T03:23:24.589Z,8.812
2022-12-22T03:25:24.177Z,8.812
2022-12-22T03:27:24.986Z,8.812
2022-12-22T03:29:24.627Z,8.812
2022-12-22T03:31:24.864Z,8.812
2022-12-22T03:33:24.524Z,8.812
2022-12-22T03:35:25.473Z,8.812
2022-12-22T03:37:24.840Z,8.812
2022-12-22T03:39:25.446Z,8.812
2022-12-22T03:41:25.299Z,8.812
2022-12-22T03:43:25.019Z,8.812
2022-12-22T03:45:25.410Z,8.812
2022-12-22T03:47:25.070Z,8.812
2022-12-22T03:49:24.469Z,8.812
2022-12-22T03:50:47.295Z,8.812
2022-12-22T03:51:23.929Z,8.812
2022-12-22T03:53:25.457Z,8.812
2022-12-22T03:55:24.512Z,8.812
2022-12-22T03:57:24.460Z,8.812
2022-12-22T03:59:24.291Z,8.812
2022-12-22T04:01:24.891Z,8.812
2022-12-22T04:03:24.793Z,8.812
2022-12-22T04:05:24.949Z,8.812
2022-12-22T04:07:24.298Z,8.812
2022-12-22T04:09:24.273Z,8.812
2022-12-22T04:11:24.434Z,8.812
2022-12-22T04:13:24.834Z,8.812
2022-12-22T04:15:25.197Z,8.812
2022-12-22T04:17:24.880Z,8.812
2022-12-22T04:19:24.962Z,8.812
2022-12-22T04:21:24.978Z,8.812
2022-12-22T04:23:23.900Z,8.812
2022-12-22T04:24:25.089Z,8.812
2022-12-22T04:25:24.246Z,8.812
2022-12-22T04:27:25.073Z,8.812
2022-12-22T04:29:24.209Z,8.812
2022-12-22T04:31:25.539Z,8.854
2022-12-22T04:33:24.738Z,8.833
2022-12-22T04:35:24.622Z,8.854
2022-12-22T04:37:27.057Z,8.833
2022-12-22T04:39:24.109Z,8.822
2022-12-22T04:41:24.330Z,8.864
2022-12-22T04:43:25.581Z,8.875
2022-12-22T04:45:24.423Z,8.864
2022-12-22T04:47:24.768Z,8.875
2022-12-22T04:49:23.979Z,8.822
2022-12-22T04:51:24.419Z,8.875
2022-12-22T04:53:25.057Z,8.875
2022-12-22T04:55:24.999Z,8.875
2022-12-22T04:57:24.790Z,8.875
2022-12-22T04:59:24.578Z,8.875
2022-12-22T05:01:25.658Z,8.875
2022-12-22T05:03:24.538Z,8.875
2022-12-22T05:04:32.959Z,8.875
2022-12-22T05:05:24.556Z,8.875
2022-12-22T05:07:24.566Z,8.875
2022-12-22T05:09:25.077Z,8.875
2022-12-22T05:11:25.107Z,8.875
2022-12-22T05:13:23.941Z,8.875
2022-12-22T05:15:25.326Z,8.875
2022-12-22T05:17:24.965Z,8.875
2022-12-22T05:19:30.584Z,8.875
2022-12-22T05:21:24.782Z,8.875
2022-12-22T05:23:24.046Z,8.875
2022-12-22T05:25:27.504Z,8.875
2022-12-22T05:27:24.636Z,8.875
2022-12-22T05:29:24.567Z,8.875
2022-12-22T05:31:24.770Z,8.875
2022-12-22T05:33:24.378Z,8.875
2022-12-22T05:35:24.774Z,8.875
2022-12-22T05:37:24.891Z,8.875
2022-12-22T05:39:25.029Z,8.887
2022-12-22T05:41:24.537Z,8.875
2022-12-22T05:43:25.511Z,8.887
2022-12-22T05:45:25.483Z,8.875
2022-12-22T05:47:38.736Z,8.885
2022-12-22T05:48:36.980Z,8.875
2022-12-22T05:49:24.712Z,8.887
2022-12-22T05:51:25.009Z,8.906
2022-12-22T05:53:24.420Z,8.875
2022-12-22T05:54:23.719Z,8.883
2022-12-22T05:55:25.819Z,8.895
2022-12-22T05:57:23.998Z,8.906
2022-12-22T05:58:23.847Z,8.916
2022-12-22T05:59:32.632Z,8.916
2022-12-22T06:00:26.215Z,8.937
2022-12-22T06:01:25.011Z,8.926
2022-12-22T06:03:26.497Z,8.937
2022-12-22T06:05:23.543Z,8.937
2022-12-22T06:07:24.784Z,8.937
2022-12-22T06:09:25.122Z,8.916
2022-12-22T06:11:24.455Z,8.937
2022-12-22T06:13:24.814Z,8.937
2022-12-22T06:15:26.212Z,8.937
2022-12-22T06:17:54.374Z,8.937
2022-12-22T06:18:25.525Z,8.937
2022-12-22T06:19:24.945Z,8.937
2022-12-22T06:21:24.939Z,8.937
2022-12-22T06:23:25.677Z,8.937
2022-12-22T06:25:28.167Z,8.937
2022-12-22T06:27:25.502Z,8.937
2022-12-22T06:29:26.130Z,8.937
2022-12-22T06:31:25.657Z,8.937
2022-12-22T06:33:24.843Z,8.937
2022-12-22T06:35:24.737Z,8.937
2022-12-22T06:37:25.531Z,8.937
2022-12-22T06:39:25.622Z,8.937
2022-12-22T06:41:25.326Z,8.937
2022-12-22T06:43:24.501Z,8.937
2022-12-22T06:45:25.490Z,8.937
2022-12-22T06:47:25.826Z,8.937
2022-12-22T06:49:24.920Z,8.937
2022-12-22T06:51:25.004Z,8.937
2022-12-22T06:53:25.053Z,8.958
2022-12-22T06:55:24.829Z,8.937
2022-12-22T06:57:25.150Z,8.937
2022-12-22T06:59:24.625Z,8.937
2022-12-22T07:00:26.321Z,7.400
2022-12-22T07:01:25.039Z,8.937
2022-12-22T07:03:24.886Z,8.937
2022-12-22T07:05:25.442Z,8.937
2022-12-22T07:07:25.278Z,8.937
2022-12-22T07:09:25.229Z,8.962
2022-12-22T07:11:25.158Z,8.946
2022-12-22T07:12:24.355Z,8.937
2022-12-22T07:13:24.542Z,9
2022-12-22T07:15:26.029Z,9
2022-12-22T07:17:25.265Z,8.974
2022-12-22T07:19:24.811Z,8.962
2022-12-22T07:20:26.181Z,9
2022-12-22T07:21:26.467Z,8.962
2022-12-22T07:23:25.460Z,8.974
2022-12-22T07:25:25.347Z,8.987
2022-12-22T07:27:25.494Z,9
2022-12-22T07:28:30.733Z,9
2022-12-22T07:29:25.540Z,9
2022-12-22T07:30:26.004Z,9
2022-12-22T07:31:25.727Z,9
2022-12-22T07:33:25.933Z,9
2022-12-22T07:35:24.811Z,9
2022-12-22T07:36:26.033Z,9
2022-12-22T07:37:24.788Z,9
2022-12-22T07:39:25.320Z,9
2022-12-22T07:41:25.492Z,9
2022-12-22T07:43:25.504Z,9
2022-12-22T07:45:25.337Z,9
2022-12-22T07:47:30.031Z,9
2022-12-22T07:49:25.858Z,9
2022-12-22T07:51:25.810Z,9
2022-12-22T07:52:25.073Z,9
2022-12-22T07:53:24.546Z,9
2022-12-22T07:55:24.958Z,9
2022-12-22T07:57:25.308Z,9
2022-12-22T07:59:25.625Z,9
2022-12-22T08:01:25.515Z,9
2022-12-22T08:03:25.831Z,9
2022-12-22T08:05:25.900Z,9
2022-12-22T08:07:26.121Z,9
2022-12-22T08:09:25.643Z,9
2022-12-22T08:10:25.970Z,9
2022-12-22T08:11:25.462Z,9
2022-12-22T08:12:25.638Z,9
2022-12-22T08:13:25.483Z,9
2022-12-22T08:15:25.858Z,9
2022-12-22T08:17:26.203Z,9
2022-12-22T08:19:25.568Z,9
2022-12-22T08:21:25.088Z,9
2022-12-22T08:23:24.317Z,9
2022-12-22T08:24:25.537Z,9
2022-12-22T08:25:25.393Z,9
2022-12-22T08:27:33.358Z,9
2022-12-22T08:29:25.101Z,9
2022-12-22T08:31:25.371Z,9
2022-12-22T08:33:24.566Z,9
2022-12-22T08:35:26.018Z,9
2022-12-22T08:37:25.258Z,9
2022-12-22T08:39:25.055Z,9
2022-12-22T08:41:25.123Z,9
2022-12-22T08:43:24.951Z,9
2022-12-22T08:45:24.542Z,9
2022-12-22T08:47:26.945Z,9
2022-12-22T08:49:24.257Z,9
2022-12-22T08:51:25.474Z,9
2022-12-22T08:52:29.067Z,9.017
2022-12-22T08:54:22.697Z,9.012
2022-12-22T08:54:32.280Z,9.041
2022-12-22T08:55:24.835Z,9.031
2022-12-22T08:56:25.815Z,9.051
2022-12-22T08:57:25.521Z,9.041
2022-12-22T08:59:25.367Z,9.010
2022-12-22T09:00:26.873Z,9.041
2022-12-22T09:01:27.131Z,9.062
2022-12-22T09:03:26.113Z,9.041
2022-12-22T09:05:26.177Z,9.041
2022-12-22T09:07:25.820Z,9.062
2022-12-22T09:09:25.288Z,9.062
2022-12-22T09:11:24.986Z,9.062
2022-12-22T09:13:27.149Z,9.062
2022-12-22T09:15:26.834Z,9.062
2022-12-22T09:17:27.078Z,9.062
2022-12-22T09:19:25.358Z,9.062
2022-12-22T09:21:26.166Z,9.062
2022-12-22T09:23:25.928Z,9.062
2022-12-22T09:24:26.551Z,9.062
2022-12-22T09:25:25.313Z,9.062
2022-12-22T09:27:26.439Z,9.062
2022-12-22T09:29:25.862Z,9.062
2022-12-22T09:31:25.572Z,9.062
2022-12-22T09:33:25.183Z,9.062
2022-12-22T09:34:27.801Z,9.062
2022-12-22T09:35:25.732Z,9.062
2022-12-22T09:37:26.138Z,9.062
2022-12-22T09:39:28.788Z,9.062
2022-12-22T09:41:25.065Z,9.062
2022-12-22T09:43:25.588Z,9.062
2022-12-22T09:45:26.963Z,9.062
2022-12-22T09:47:25.581Z,9.062
2022-12-22T09:49:25.751Z,9.062
2022-12-22T09:51:34.164Z,9.062
2022-12-22T09:53:25.243Z,9.062
2022-12-22T09:55:25.302Z,9.062
2022-12-22T09:57:25.313Z,9.062
2022-12-22T09:58:31.721Z,9.062
2022-12-22T09:59:25.164Z,9.062
2022-12-22T10:01:26.196Z,9.062
2022-12-22T10:03:25.452Z,9.062
2022-12-22T10:05:25.491Z,9.062
2022-12-22T10:07:25.882Z,9.062
2022-12-22T10:09:58.434Z,9.062
2022-12-22T10:11:25.989Z,9.083
2022-12-22T10:13:26.073Z,9.062
2022-12-22T10:15:31.484Z,9.062
2022-12-22T10:17:25.587Z,9.062
2022-12-22T10:19:25.383Z,9.062
2022-12-22T10:20:26.620Z,9.062
2022-12-22T10:21:25.124Z,9.062
2022-12-22T10:23:25.973Z,9.062
2022-12-22T10:25:26.939Z,9.062
2022-12-22T10:26:40.419Z,9.062
2022-12-22T10:27:42.949Z,9.062
2022-12-22T10:29:25.291Z,9.079
2022-12-22T10:30:26.264Z,9.074
2022-12-22T10:31:25.546Z,9.062
2022-12-22T10:33:26.814Z,9.062
2022-12-22T10:35:26.569Z,9.062
2022-12-22T10:37:39.468Z,9.062
2022-12-22T10:38:31.743Z,9.062
2022-12-22T10:39:26.043Z,9.062
2022-12-22T10:41:26.439Z,9.062
2022-12-22T10:43:38.981Z,9.062
2022-12-22T10:45:30.778Z,9.062
2022-12-22T10:47:27.483Z,9.062
2022-12-22T10:49:24.845Z,9.062
2022-12-22T10:51:25.114Z,9.062
2022-12-22T10:53:24.837Z,9.062
2022-12-22T10:55:25.882Z,9.093
2022-12-22T10:57:25.916Z,9.062
2022-12-22T10:59:24.396Z,9.072
2022-12-22T11:01:26.230Z,9.083
2022-12-22T11:03:33.882Z,9.093
2022-12-22T11:05:25.609Z,9.125
2022-12-22T11:07:41.684Z,7.599
2022-12-22T11:09:44.547Z,9.104
2022-12-22T11:11:25.281Z,9.114
2022-12-22T11:13:25.412Z,9.125
2022-12-22T11:15:33.378Z,9.125
2022-12-22T11:17:26.345Z,9.125
2022-12-22T11:19:25.586Z,9.125
2022-12-22T11:21:33.317Z,9.125
2022-12-22T11:23:26.074Z,9.125
2022-12-22T11:25:25.516Z,9.125
2022-12-22T11:27:26.871Z,9.125
2022-12-22T11:29:26.384Z,9.125
2022-12-22T11:31:26.161Z,9.125
2022-12-22T11:33:25.112Z,9.125
2022-12-22T11:34:31.684Z,9.125
2022-12-22T11:35:25.859Z,9.125
2022-12-22T11:37:25.495Z,9.125
2022-12-22T11:39:26.143Z,9.125
2022-12-22T11:41:26.061Z,9.125
2022-12-22T11:43:24.921Z,9.125
2022-12-22T11:45:26.140Z,9.125
2022-12-22T11:47:25.565Z,9.125
2022-12-22T11:49:24.255Z,9.125
2022-12-22T11:51:13.868Z,9.125
2022-12-22T11:51:37.577Z,9.125
2022-12-22T11:53:25.853Z,9.125
2022-12-22T11:55:25.824Z,9.125
2022-12-22T11:57:25.536Z,9.125
2022-12-22T11:59:25.893Z,9.125
2022-12-22T12:00:48.983Z,9.125
2022-12-22T12:01:33.780Z,9.125
2022-12-22T12:03:26.323Z,9.125
2022-12-22T12:05:25.400Z,9.125
2022-12-22T12:07:31.568Z,9.125
2022-12-22T12:09:26.385Z,9.125
2022-12-22T12:11:26.100Z,9.125
2022-12-22T12:13:37.647Z,9.125
2022-12-22T12:15:26.110Z,9.125
2022-12-22T12:17:25.849Z,9.125
2022-12-22T12:19:33.044Z,9.125
2022-12-22T12:21:25.202Z,9.125
2022-12-22T12:23:25.485Z,9.125
2022-12-22T12:25:26.162Z,9.125
2022-12-22T12:27:25.065Z,9.125
2022-12-22T12:29:25.251Z,9.125
2022-12-22T12:30:48.739Z,9.125
2022-12-22T12:31:33.182Z,9.125
2022-12-22T12:33:25.119Z,9.125
2022-12-22T12:35:25.836Z,9.125
2022-12-22T12:37:31.047Z,9.125
2022-12-22T12:39:09.387Z,9.125
2022-12-22T12:39:27.745Z,9.125
2022-12-22T12:41:24.612Z,9.125
2022-12-22T12:43:26.101Z,9.125
2022-12-22T12:45:25.366Z,9.125
2022-12-22T12:47:25.184Z,9.125
2022-12-22T12:49:32.946Z,9.125
2022-12-22T12:51:25.006Z,9.125
2022-12-22T12:53:25.647Z,9.125
2022-12-22T12:55:32.666Z,9.125
2022-12-22T12:57:25.626Z,9.125
2022-12-22T12:58:33.348Z,9.125
2022-12-22T12:59:24.671Z,9.125
2022-12-22T13:01:26.740Z,9.125
2022-12-22T13:04:14.848Z,9.125
2022-12-22T13:04:31.838Z,9.125
2022-12-22T13:05:25.442Z,9.125
2022-12-22T13:07:25.647Z,9.125
2022-12-22T13:08:38.909Z,9.125
2022-12-22T13:10:00.537Z,9.125
2022-12-22T13:12:12.308Z,9.125
2022-12-22T13:12:33.860Z,9.125
2022-12-22T13:13:25.436Z,9.125
2022-12-22T13:15:25.930Z,9.125
2022-12-22T13:17:26.080Z,9.125
2022-12-22T13:19:24.738Z,9.125
2022-12-22T13:21:53.822Z,9.125
2022-12-22T13:23:25.844Z,9.125
2022-12-22T13:24:37.070Z,9.125
2022-12-22T13:25:25.171Z,9.125
2022-12-22T13:27:25.612Z,9.125
2022-12-22T13:29:24.946Z,9.149
2022-12-22T13:30:26.712Z,9.142
2022-12-22T13:31:25.868Z,9.125
2022-12-22T13:33:25.560Z,9.125
2022-12-22T13:34:26.723Z,9.135
2022-12-22T13:35:48.463Z,9.125
2022-12-22T13:37:25.631Z,9.149
2022-12-22T13:39:26.256Z,9.125
2022-12-22T13:41:32.356Z,9.125
2022-12-22T13:43:25.599Z,9.125
2022-12-22T13:45:26.517Z,9.125
2022-12-22T13:47:26.590Z,9.125
2022-12-22T13:50:08.805Z,9.125
2022-12-22T13:51:24.151Z,9.125
2022-12-22T13:54:10.883Z,9.135
2022-12-22T13:55:25.463Z,9.125
2022-12-22T13:57:24.038Z,9.125
2022-12-22T13:59:25.293Z,9.125
2022-12-22T14:01:25.904Z,9.125
2022-12-22T14:04:01.460Z,9.145
2022-12-22T14:05:25.488Z,9.166
2022-12-22T14:07:26.030Z,9.145
2022-12-22T14:09:26.153Z,9.156
2022-12-22T14:11:25.149Z,9.156
2022-12-22T14:13:26.166Z,9.125
2022-12-22T14:15:25.877Z,9.135
2022-12-22T14:17:26.312Z,9.125
2022-12-22T14:19:25.948Z,9.135
2022-12-22T14:21:25.566Z,9.125
2022-12-22T14:23:26.700Z,9.166
2022-12-22T14:25:27.377Z,9.176
2022-12-22T14:27:26.703Z,9.187
2022-12-22T14:29:27.762Z,9.176
2022-12-22T14:31:25.916Z,9.125
2022-12-22T14:33:26.397Z,9.135
2022-12-22T14:35:26.537Z,9.125
2022-12-22T14:37:32.427Z,9.135
2022-12-22T14:39:25.958Z,9.125
2022-12-22T14:41:25.552Z,9.125
2022-12-22T14:43:26.377Z,9.125
2022-12-22T14:45:25.997Z,9.125
2022-12-22T14:47:27.264Z,9.125
2022-12-22T14:48:25.708Z,9.125
2022-12-22T14:49:26.227Z,9.125
2022-12-22T14:51:25.480Z,9.125
2022-12-22T14:53:26.134Z,9.125
2022-12-22T14:54:26.642Z,9.125
2022-12-22T14:55:25.949Z,9.125
2022-12-22T14:56:26.214Z,9.125
2022-12-22T14:57:26.899Z,9.125
2022-12-22T14:59:26.054Z,9.125
2022-12-22T15:00:26.921Z,9.125
2022-12-22T15:01:26.674Z,9.125
2022-12-22T15:02:26.838Z,9.125
2022-12-22T15:03:26.825Z,9.125
2022-12-22T15:05:25.583Z,9.125
2022-12-22T15:08:22.671Z,9.125
2022-12-22T15:08:38.122Z,9.125
2022-12-22T15:10:22.715Z,9.125
2022-12-22T15:10:31.753Z,9.125
2022-12-22T15:11:26.013Z,9.125
2022-12-22T15:13:25.946Z,9.125
2022-12-22T15:15:25.838Z,9.125
2022-12-22T15:17:26.602Z,9.125
2022-12-22T15:19:26.197Z,9.125
2022-12-22T15:21:26.013Z,9.125
2022-12-22T15:23:27.720Z,9.125
2022-12-22T15:25:26.430Z,9.125
2022-12-22T15:27:26.896Z,9.125
2022-12-22T15:29:26.328Z,9.125
2022-12-22T15:31:40.298Z,9.125
2022-12-22T15:33:26.329Z,9.125
2022-12-22T15:35:31.484Z,9.125
2022-12-22T15:37:40.514Z,9.125
2022-12-22T15:39:26.312Z,9.125
2022-12-22T15:41:25.909Z,9.125
2022-12-22T15:44:11.532Z,9.125
2022-12-22T15:44:36.827Z,9.125
2022-12-22T15:45:26.104Z,9.125
2022-12-22T15:47:25.564Z,9.125
2022-12-22T15:49:26.453Z,9.125
2022-12-22T15:50:29.287Z,9.125
2022-12-22T15:51:25.428Z,9.125
2022-12-22T15:53:25.017Z,9.125
2022-12-22T15:55:25.379Z,9.125
2022-12-22T15:56:27.324Z,9.125
2022-12-22T15:57:26.373Z,9.125
2022-12-22T15:59:25.983Z,9.125
2022-12-22T16:00:27.451Z,9.125
2022-12-22T16:02:00.499Z,9.125
2022-12-22T16:02:26.151Z,9.125
2022-12-22T16:03:27.611Z,9.125
2022-12-22T16:04:26.137Z,9.125
2022-12-22T16:05:26.112Z,9.125
2022-12-22T16:07:26.383Z,9.125
2022-12-22T16:08:28.132Z,9.125
2022-12-22T16:09:26.028Z,9.125
2022-12-22T16:11:26.142Z,9.125
2022-12-22T16:13:26.343Z,9.125
2022-12-22T16:15:25.797Z,9.125
2022-12-22T16:17:26.074Z,9.125
2022-12-22T16:19:25.859Z,9.125
2022-12-22T16:21:25.922Z,9.125
2022-12-22T16:23:25.305Z,9.125
2022-12-22T16:24:25.603Z,9.125
2022-12-22T16:25:25.820Z,9.125
2022-12-22T16:26:26.854Z,9.125
2022-12-22T16:27:26.423Z,9.125
2022-12-22T16:28:26.307Z,9.125
2022-12-22T16:29:26.939Z,9.125
2022-12-22T16:30:27.319Z,9.125
2022-12-22T16:31:27.163Z,9.125
2022-12-22T16:32:28.465Z,9.125
2022-12-22T16:33:53.864Z,9.125
2022-12-22T16:35:27.915Z,9.125
2022-12-22T16:36:26.063Z,9.125
2022-12-22T16:37:25.664Z,9.125
2022-12-22T16:38:29.249Z,9.125
2022-12-22T16:39:26.540Z,9.125
2022-12-22T16:40:25.326Z,9.125
2022-12-22T16:41:26.327Z,9.125
2022-12-22T16:44:34.796Z,9.125
2022-12-22T16:45:29.817Z,9.125
2022-12-22T16:45:41.494Z,9.125
2022-12-22T16:45:41.814Z,9.125
2022-12-22T16:46:26.911Z,9.125
2022-12-22T16:47:27.409Z,9.125
2022-12-22T16:48:26.012Z,9.125
2022-12-22T16:49:30.222Z,9.125
2022-12-22T16:50:26.855Z,9.125
2022-12-22T16:51:26.160Z,9.125
2022-12-22T16:53:26.181Z,9.125
2022-12-22T16:54:26.632Z,9.125
2022-12-22T16:55:27.576Z,9.125
2022-12-22T16:56:27.404Z,9.125
2022-12-22T16:57:27.028Z,9.125
2022-12-22T16:59:26.788Z,9.125
2022-12-22T17:00:28.754Z,9.125
2022-12-22T17:01:27.770Z,9.125
2022-12-22T17:02:27.782Z,9.125
2022-12-22T17:03:27.054Z,9.125
2022-12-22T17:05:27.312Z,9.125
2022-12-22T17:06:26.901Z,9.125
2022-12-22T17:07:27.258Z,9.125
2022-12-22T17:09:26.869Z,9.125
2022-12-22T17:10:27.195Z,9.125
2022-12-22T17:11:26.869Z,9.125
2022-12-22T17:12:27.032Z,9.125
2022-12-22T17:13:26.094Z,9.125
2022-12-22T17:15:26.717Z,9.125
2022-12-22T17:17:32.957Z,9.125
2022-12-22T17:19:25.738Z,9.125
2022-12-22T17:21:25.770Z,9.125
2022-12-22T17:23:27.309Z,9.125
2022-12-22T17:25:26.773Z,9.125
2022-12-22T17:26:26.553Z,9.125
2022-12-22T17:27:26.847Z,9.125
2022-12-22T17:28:26.182Z,9.125
2022-12-22T17:29:25.573Z,9.125
2022-12-22T17:30:28.508Z,9.125
2022-12-22T17:31:26.630Z,9.125
2022-12-22T17:32:26.078Z,9.125
2022-12-22T17:33:25.792Z,9.125
2022-12-22T17:35:25.724Z,9.125
2022-12-22T17:36:28.960Z,9.125
2022-12-22T17:37:26.672Z,9.125
2022-12-22T17:39:27.430Z,9.125
2022-12-22T17:41:26.269Z,9.125
2022-12-22T17:42:26.319Z,9.125
2022-12-22T17:43:25.970Z,9.125
2022-12-22T17:45:26.139Z,9.125
2022-12-22T17:47:33.408Z,9.145
2022-12-22T17:48:25.994Z,9.135
2022-12-22T17:49:25.449Z,9.125
2022-12-22T17:51:25.389Z,9.135
2022-12-22T17:53:25.805Z,9.145
2022-12-22T17:54:39.606Z,9.145
2022-12-22T17:56:01.302Z,9.145
2022-12-22T17:57:25.832Z,9.156
2022-12-22T17:59:25.541Z,9.145
2022-12-22T18:00:28.634Z,9.176
2022-12-22T18:01:26.437Z,9.176
2022-12-22T18:03:26.720Z,9.176
2022-12-22T18:04:40.094Z,9.187
2022-12-22T18:05:26.236Z,9.187
2022-12-22T18:06:28.874Z,9.187
2022-12-22T18:07:26.289Z,9.187
2022-12-22T18:09:26.644Z,9.187
2022-12-22T18:11:25.634Z,9.187
2022-12-22T18:12:34.280Z,9.187
2022-12-22T18:13:25.843Z,9.187
2022-12-22T18:15:26.406Z,9.187
2022-12-22T18:17:29.872Z,9.187
2022-12-22T18:19:26.908Z,9.187
2022-12-22T18:20:26.869Z,9.187
2022-12-22T18:21:26.511Z,9.187
2022-12-22T18:22:27.579Z,9.187
2022-12-22T18:23:26.615Z,9.187
2022-12-22T18:25:27.184Z,9.187
2022-12-22T18:27:26.044Z,9.187
2022-12-22T18:29:26.537Z,9.187
2022-12-22T18:30:27.194Z,9.187
2022-12-22T18:31:26.204Z,9.187
2022-12-22T18:32:36.309Z,9.187
2022-12-22T18:33:26.667Z,9.187
2022-12-22T18:34:26.406Z,9.187
2022-12-22T18:35:26.434Z,9.187
2022-12-22T18:37:26.558Z,9.187
2022-12-22T18:39:28.194Z,9.187
2022-12-22T18:40:28.659Z,9.187
2022-12-22T18:41:26.920Z,9.187
2022-12-22T18:42:26.816Z,9.187
2022-12-22T18:43:25.769Z,9.187
2022-12-22T18:44:26.653Z,9.187
2022-12-22T18:45:26.969Z,9.187
2022-12-22T18:46:49.215Z,9.187
2022-12-22T18:47:26.124Z,9.187
2022-12-22T18:49:26.094Z,9.187
2022-12-22T18:50:26.236Z,9.187
2022-12-22T18:51:25.913Z,9.187
2022-12-22T18:53:25.940Z,9.187
2022-12-22T18:54:30.171Z,9.187
2022-12-22T18:55:26.494Z,9.187
2022-12-22T18:57:25.982Z,9.187
2022-12-22T18:59:26.277Z,9.187
2022-12-22T19:00:27.951Z,9.187
2022-12-22T19:01:27.890Z,9.187
2022-12-22T19:03:27.103Z,9.187
2022-12-22T19:05:27.000Z,9.187
2022-12-22T19:06:25.854Z,9.187
2022-12-22T19:07:26.819Z,9.187
2022-12-22T19:08:26.381Z,9.187
2022-12-22T19:09:26.134Z,9.187
2022-12-22T19:11:26.254Z,9.187
2022-12-22T19:13:26.290Z,9.187
2022-12-22T19:15:26.564Z,9.187
2022-12-22T19:17:26.070Z,9.187
2022-12-22T19:18:32.314Z,9.208
2022-12-22T19:19:26.047Z,9.197
2022-12-22T19:21:25.706Z,9.239
2022-12-22T19:23:26.418Z,9.208
2022-12-22T19:25:27.334Z,9.218
2022-12-22T19:27:25.557Z,9.199
2022-12-22T19:29:25.790Z,9.224
2022-12-22T19:30:27.271Z,9.232
2022-12-22T19:31:26.072Z,9.237
2022-12-22T19:33:25.708Z,9.25
2022-12-22T19:35:25.603Z,9.25
2022-12-22T19:36:26.692Z,9.222
2022-12-22T19:37:25.668Z,9.224
2022-12-22T19:38:26.391Z,9.25
2022-12-22T19:39:25.198Z,9.25
2022-12-22T19:41:25.735Z,9.25
2022-12-22T19:43:25.322Z,9.25
2022-12-22T19:45:31.435Z,9.25
2022-12-22T19:47:26.177Z,9.25
2022-12-22T19:49:26.388Z,9.25
2022-12-22T19:51:27.927Z,9.25
2022-12-22T19:52:26.743Z,9.25
2022-12-22T19:53:26.175Z,9.25
2022-12-22T19:54:25.931Z,9.25
2022-12-22T19:55:26.514Z,9.25
2022-12-22T19:57:26.933Z,9.25
2022-12-22T19:59:39.445Z,9.25
2022-12-22T20:00:27.564Z,9.25
2022-12-22T20:01:31.805Z,9.25
2022-12-22T20:03:27.122Z,9.25
2022-12-22T20:05:25.747Z,9.25
2022-12-22T20:07:25.276Z,9.25
2022-12-22T20:08:25.731Z,9.25
2022-12-22T20:09:25.671Z,9.25
2022-12-22T20:10:26.540Z,9.25
2022-12-22T20:11:25.766Z,9.25
2022-12-22T20:13:25.766Z,9.25
2022-12-22T20:15:25.608Z,9.25
2022-12-22T20:17:24.867Z,9.25
2022-12-22T20:19:26.125Z,9.25
2022-12-22T20:20:26.232Z,9.25
2022-12-22T20:21:25.662Z,9.25
2022-12-22T20:22:25.953Z,9.25
2022-12-22T20:23:27.108Z,9.25
2022-12-22T20:25:26.251Z,9.25
2022-12-22T20:27:25.640Z,9.25
2022-12-22T20:29:30.841Z,9.25
2022-12-22T20:30:27.934Z,9.25
2022-12-22T20:31:40.110Z,9.25
2022-12-22T20:32:28.897Z,9.25
2022-12-22T20:33:25.673Z,9.25
2022-12-22T20:35:25.821Z,9.25
2022-12-22T20:37:25.655Z,9.25
2022-12-22T20:39:25.952Z,9.25
2022-12-22T20:40:26.287Z,9.25
2022-12-22T20:41:25.941Z,9.25
2022-12-22T20:43:25.405Z,9.270
2022-12-22T20:44:26.062Z,9.25
2022-12-22T20:45:40.018Z,9.25
2022-12-22T20:47:32.148Z,9.270
2022-12-22T20:49:25.708Z,9.281
2022-12-22T20:51:26.177Z,9.25
2022-12-22T20:53:27.115Z,9.260
2022-12-22T20:55:40.989Z,9.281
2022-12-22T20:57:26.204Z,9.281
2022-12-22T20:59:25.975Z,9.312
2022-12-22T21:00:27.428Z,9.312
2022-12-22T21:01:54.265Z,9.312
2022-12-22T21:02:26.631Z,9.301
2022-12-22T21:03:26.772Z,9.274
2022-12-22T21:04:25.957Z,9.312
2022-12-22T21:05:25.960Z,9.287
2022-12-22T21:06:26.628Z,9.312
2022-12-22T21:07:27.011Z,9.299
2022-12-22T21:08:30.354Z,9.312
2022-12-22T21:09:26.367Z,9.301
2022-12-22T21:11:26.778Z,9.312
2022-12-22T21:12:26.893Z,9.312
2022-12-22T21:13:25.861Z,9.312
2022-12-22T21:14:26.477Z,9.312
2022-12-22T21:15:27.416Z,9.312
2022-12-22T21:16:26.681Z,9.312
2022-12-22T21:17:25.855Z,9.312
2022-12-22T21:19:26.367Z,9.312
2022-12-22T21:21:25.181Z,9.301
2022-12-22T21:23:25.426Z,9.312
2022-12-22T21:24:25.955Z,9.312
2022-12-22T21:25:26.672Z,9.312
2022-12-22T21:27:26.213Z,9.301
2022-12-22T21:29:26.384Z,9.312
2022-12-22T21:31:26.058Z,9.312
2022-12-22T21:33:25.979Z,9.312
2022-12-22T21:34:26.235Z,9.301
2022-12-22T21:35:25.934Z,9.312
2022-12-22T21:36:25.621Z,9.312
2022-12-22T21:37:26.230Z,9.312
2022-12-22T21:39:25.678Z,9.312
2022-12-22T21:41:26.332Z,9.312
2022-12-22T21:43:25.390Z,9.301